Graneros, Argentina
Current Conditions -  °F | °C
As of 12:00 AM on Monday 24 Nov 2014 (Local Time) from SANT Reporting Station
Clear Clear  
Wind Chill: 81°   Ceiling: Unl
Heat Index: 82°   Visibility: 6mi
Dew Point: 63°   Wind: 7mph
Humidity: 54%   Direction: 340°NNW
Pressure: 29.65"   Gusts: NA
Location:  27.65°S, 65.44°W
Report Text: SANT 240300Z 34006KT CAVOK 27/17 Q1004
Loading
Personal Weather Stations






























Interactive Weather Map New forecast layout! Learn more

10-Day Weather Forecast

Advertisements
Track Severe Weather on mobile